Portada
METAR-TAF:

METAR-TAF

Aeroports :

Georgetown, Illa de l'Ascensió

latitud: 07-58S, longitud: 014-24W, altitud: 86 m

Observació

L'informe es va fer fa 13 hores i 54 minuts, a les 20:50 UTC
Vent 15 kt del Sud-Est
Temperatura 28°C
Humitat 74%
Pressió 1012 hPa
Visibilitat 10 km o més
Escasses núvols a una alçada de 2000 ft
Núvols disperses a una alçada de 3500 ft

METAR: FHAW 012050Z 13015KT 9999 FEW020 SCT035 28/23 Q1012 TEMPO -SHRA SCT018

Hora: 10:44 (10:44 UTC)

Pronòstic

L'informe es va fer fa 15 hores i 21 minuts, a les 19:23 UTC
Pronòstic vàlid del 01 a les 19 UTC al 02 a les 12 UTC
Vent 16 kt del Sud-Est
Visibilitat 10 km o més
Escasses núvols a una alçada de 1600 ft
Probabilitat 30% :
Temporalment
l' 01 a les 19 UTC al 02 a les 09 UTC
Visibilitat: 7000 m
Núvols disperses a una alçada de 1400 ft
xàfecs de pluja

TAF: FHAW 011923Z 0119/0212 14016KT 9999 FEW016 PROB30 TEMPO 0119/0209 7000 -SHRA SCT014

Observacions i pronòstics meteorològics de més de 4000 aeroports (METAR i TAF).

Les estacions disponibles són els punts grocs i vermells al mapa.

Posi el ratolí al punt desitjat per veure el nom de l'estació.

Feu clic per veure les observacions i els pronòstics meteorològics.

Per canviar el mapa: feu clic els botons verds amb una creu de color negre per apropar; al botó verd amb un guió per allunyar la imatge; o en les fletxes verdes per a mapes adjacents.


METAR-TAF: